sensor_id;sensor_type;location;lat;lon;timestamp;pressure;altitude;pressure_sealevel;temperature;humidity
35647;BME280;28680;45.642;13.756;2023-06-14T00:01:46;100630.78;;;22.64;100.00
35647;BME280;28680;45.642;13.756;2023-06-14T00:04:13;100630.75;;;22.51;100.00
35647;BME280;28680;45.642;13.756;2023-06-14T00:06:39;100625.22;;;22.59;100.00
35647;BME280;28680;45.642;13.756;2023-06-14T00:09:07;100615.16;;;22.68;100.00
35647;BME280;28680;45.642;13.756;2023-06-14T00:11:34;100617.84;;;22.74;100.00
35647;BME280;28680;45.642;13.756;2023-06-14T00:14:00;100618.84;;;22.60;100.00
35647;BME280;28680;45.642;13.756;2023-06-14T00:16:26;100615.78;;;22.83;100.00
35647;BME280;28680;45.642;13.756;2023-06-14T00:18:51;100609.84;;;23.01;100.00
35647;BME280;28680;45.642;13.756;2023-06-14T00:21:17;100601.59;;;22.76;100.00
35647;BME280;28680;45.642;13.756;2023-06-14T00:23:45;100609.97;;;22.53;100.00
35647;BME280;28680;45.642;13.756;2023-06-14T00:26:11;100601.50;;;22.36;100.00
35647;BME280;28680;45.642;13.756;2023-06-14T00:28:37;100601.41;;;22.23;100.00
35647;BME280;28680;45.642;13.756;2023-06-14T00:31:03;100599.16;;;22.19;100.00
35647;BME280;28680;45.642;13.756;2023-06-14T00:33:29;100596.06;;;22.16;100.00
35647;BME280;28680;45.642;13.756;2023-06-14T00:35:54;100592.34;;;22.10;100.00
35647;BME280;28680;45.642;13.756;2023-06-14T00:38:21;100598.09;;;22.14;100.00
35647;BME280;28680;45.642;13.756;2023-06-14T00:40:47;100590.72;;;22.16;100.00
35647;BME280;28680;45.642;13.756;2023-06-14T00:43:13;100585.94;;;22.11;100.00
35647;BME280;28680;45.642;13.756;2023-06-14T00:45:39;100587.56;;;22.06;100.00
35647;BME280;28680;45.642;13.756;2023-06-14T00:48:06;100585.31;;;22.03;100.00
35647;BME280;28680;45.642;13.756;2023-06-14T00:50:33;100580.59;;;22.05;100.00
35647;BME280;28680;45.642;13.756;2023-06-14T00:53:00;100578.72;;;21.98;100.00
35647;BME280;28680;45.642;13.756;2023-06-14T00:55:27;100577.88;;;21.91;100.00
35647;BME280;28680;45.642;13.756;2023-06-14T00:57:55;100579.50;;;21.92;100.00
35647;BME280;28680;45.642;13.756;2023-06-14T01:00:21;100579.13;;;21.95;100.00
35647;BME280;28680;45.642;13.756;2023-06-14T01:02:47;100577.00;;;21.84;100.00
35647;BME280;28680;45.642;13.756;2023-06-14T01:05:15;100573.72;;;21.82;100.00
35647;BME280;28680;45.642;13.756;2023-06-14T01:08:26;100581.97;;;21.87;100.00
35647;BME280;28680;45.642;13.756;2023-06-14T01:11:07;100583.41;;;21.90;100.00
35647;BME280;28680;45.642;13.756;2023-06-14T01:13:39;100578.69;;;21.92;100.00
35647;BME280;28680;45.642;13.756;2023-06-14T01:16:08;100578.44;;;21.87;100.00
35647;BME280;28680;45.642;13.756;2023-06-14T01:18:34;100574.34;;;21.84;100.00
35647;BME280;28680;45.642;13.756;2023-06-14T01:21:00;100582.53;;;21.83;100.00
35647;BME280;28680;45.642;13.756;2023-06-14T01:23:31;100578.19;;;21.75;100.00
35647;BME280;28680;45.642;13.756;2023-06-14T01:25:59;100570.00;;;21.76;100.00
35647;BME280;28680;45.642;13.756;2023-06-14T01:28:29;100570.00;;;21.76;100.00
35647;BME280;28680;45.642;13.756;2023-06-14T01:31:01;100567.94;;;21.78;100.00
35647;BME280;28680;45.642;13.756;2023-06-14T01:33:33;100564.03;;;21.74;100.00
35647;BME280;28680;45.642;13.756;2023-06-14T01:36:01;100564.03;;;21.74;100.00
35647;BME280;28680;45.642;13.756;2023-06-14T01:38:28;100561.72;;;21.71;100.00
35647;BME280;28680;45.642;13.756;2023-06-14T01:40:57;100555.78;;;21.69;100.00
35647;BME280;28680;45.642;13.756;2023-06-14T01:43:24;100555.53;;;21.64;100.00
35647;BME280;28680;45.642;13.756;2023-06-14T01:45:51;100558.00;;;21.66;100.00
35647;BME280;28680;45.642;13.756;2023-06-14T01:48:20;100552.03;;;21.57;100.00
35647;BME280;28680;45.642;13.756;2023-06-14T01:50:48;100554.88;;;21.55;100.00
35647;BME280;28680;45.642;13.756;2023-06-14T01:53:14;100554.88;;;21.55;100.00
35647;BME280;28680;45.642;13.756;2023-06-14T01:55:40;100556.69;;;21.48;100.00
35647;BME280;28680;45.642;13.756;2023-06-14T01:58:10;100563.44;;;21.44;100.00
35647;BME280;28680;45.642;13.756;2023-06-14T02:00:36;100558.31;;;21.49;100.00
35647;BME280;28680;45.642;13.756;2023-06-14T02:03:02;100562.84;;;21.49;100.00
35647;BME280;28680;45.642;13.756;2023-06-14T02:05:30;100560.34;;;21.47;100.00
35647;BME280;28680;45.642;13.756;2023-06-14T02:07:56;100557.13;;;21.52;100.00
35647;BME280;28680;45.642;13.756;2023-06-14T02:10:22;100543.97;;;21.50;100.00
35647;BME280;28680;45.642;13.756;2023-06-14T02:12:48;100547.78;;;21.41;100.00
35647;BME280;28680;45.642;13.756;2023-06-14T02:15:14;100551.22;;;21.35;100.00
35647;BME280;28680;45.642;13.756;2023-06-14T02:17:43;100549.53;;;21.27;100.00
35647;BME280;28680;45.642;13.756;2023-06-14T02:20:10;100542.69;;;21.18;100.00
35647;BME280;28680;45.642;13.756;2023-06-14T02:22:36;100550.69;;;21.18;100.00
35647;BME280;28680;45.642;13.756;2023-06-14T02:25:02;100549.72;;;21.26;100.00
35647;BME280;28680;45.642;13.756;2023-06-14T02:27:28;100553.63;;;21.23;100.00
35647;BME280;28680;45.642;13.756;2023-06-14T02:29:54;100560.34;;;21.19;100.00
35647;BME280;28680;45.642;13.756;2023-06-14T02:32:20;100562.44;;;21.23;100.00
35647;BME280;28680;45.642;13.756;2023-06-14T02:34:46;100568.50;;;21.11;100.00
35647;BME280;28680;45.642;13.756;2023-06-14T02:37:18;100572.13;;;21.03;100.00
35647;BME280;28680;45.642;13.756;2023-06-14T02:39:44;100565.06;;;21.17;100.00
35647;BME280;28680;45.642;13.756;2023-06-14T02:42:10;100565.91;;;21.17;100.00
35647;BME280;28680;45.642;13.756;2023-06-14T02:44:36;100564.88;;;21.18;100.00
35647;BME280;28680;45.642;13.756;2023-06-14T02:47:03;100564.19;;;21.10;100.00
35647;BME280;28680;45.642;13.756;2023-06-14T02:49:29;100562.97;;;21.12;100.00
35647;BME280;28680;45.642;13.756;2023-06-14T02:51:55;100553.31;;;21.11;100.00
35647;BME280;28680;45.642;13.756;2023-06-14T02:54:21;100559.53;;;21.18;100.00
35647;BME280;28680;45.642;13.756;2023-06-14T02:56:47;100554.06;;;20.98;100.00
35647;BME280;28680;45.642;13.756;2023-06-14T02:59:13;100552.25;;;21.06;100.00
35647;BME280;28680;45.642;13.756;2023-06-14T03:01:40;100550.69;;;21.18;100.00
35647;BME280;28680;45.642;13.756;2023-06-14T03:04:10;100541.47;;;21.20;100.00
35647;BME280;28680;45.642;13.756;2023-06-14T03:06:36;100547.00;;;21.19;100.00
35647;BME280;28680;45.642;13.756;2023-06-14T03:09:03;100544.75;;;21.16;100.00
35647;BME280;28680;45.642;13.756;2023-06-14T03:11:31;100543.75;;;21.23;100.00
35647;BME280;28680;45.642;13.756;2023-06-14T03:13:57;100544.59;;;21.24;100.00
35647;BME280;28680;45.642;13.756;2023-06-14T03:16:24;100548.50;;;21.28;100.00
35647;BME280;28680;45.642;13.756;2023-06-14T03:18:51;100546.06;;;21.27;100.00
35647;BME280;28680;45.642;13.756;2023-06-14T03:21:18;100549.72;;;21.26;100.00
35647;BME280;28680;45.642;13.756;2023-06-14T03:23:46;100553.22;;;21.26;100.00
35647;BME280;28680;45.642;13.756;2023-06-14T03:26:13;100554.00;;;21.20;100.00
35647;BME280;28680;45.642;13.756;2023-06-14T03:28:42;100549.47;;;21.20;100.00
35647;BME280;28680;45.642;13.756;2023-06-14T03:31:09;100555.25;;;21.24;100.00
35647;BME280;28680;45.642;13.756;2023-06-14T03:33:35;100555.69;;;21.28;100.00
35647;BME280;28680;45.642;13.756;2023-06-14T03:36:02;100559.59;;;21.25;100.00
35647;BME280;28680;45.642;13.756;2023-06-14T03:38:28;100555.59;;;21.14;100.00
35647;BME280;28680;45.642;13.756;2023-06-14T03:40:54;100560.34;;;21.19;100.00
35647;BME280;28680;45.642;13.756;2023-06-14T03:43:20;100553.38;;;21.18;100.00
35647;BME280;28680;45.642;13.756;2023-06-14T03:45:46;100562.59;;;21.15;100.00
35647;BME280;28680;45.642;13.756;2023-06-14T03:48:12;100561.56;;;21.16;100.00
35647;BME280;28680;45.642;13.756;2023-06-14T03:50:38;100562.38;;;21.17;100.00
35647;BME280;28680;45.642;13.756;2023-06-14T03:53:05;100569.56;;;21.16;100.00
35647;BME280;28680;45.642;13.756;2023-06-14T03:55:31;100569.53;;;21.10;100.00
35647;BME280;28680;45.642;13.756;2023-06-14T03:57:57;100570.19;;;21.18;100.00
35647;BME280;28680;45.642;13.756;2023-06-14T04:00:23;100575.69;;;21.10;100.00
35647;BME280;28680;45.642;13.756;2023-06-14T04:02:49;100574.28;;;21.14;100.00
35647;BME280;28680;45.642;13.756;2023-06-14T04:05:15;100573.47;;;21.14;100.00
35647;BME280;28680;45.642;13.756;2023-06-14T04:07:42;100576.31;;;21.12;100.00
35647;BME280;28680;45.642;13.756;2023-06-14T04:10:12;100579.00;;;21.12;100.00
35647;BME280;28680;45.642;13.756;2023-06-14T04:12:39;100584.13;;;21.14;100.00
35647;BME280;28680;45.642;13.756;2023-06-14T04:15:06;100579.63;;;21.14;100.00
35647;BME280;28680;45.642;13.756;2023-06-14T04:17:32;100583.72;;;21.17;100.00
35647;BME280;28680;45.642;13.756;2023-06-14T04:20:02;100574.97;;;21.23;100.00
35647;BME280;28680;45.642;13.756;2023-06-14T04:22:30;100579.28;;;21.24;100.00
35647;BME280;28680;45.642;13.756;2023-06-14T04:24:57;100584.06;;;21.29;100.00
35647;BME280;28680;45.642;13.756;2023-06-14T04:27:27;100578.28;;;21.25;100.00
35647;BME280;28680;45.642;13.756;2023-06-14T04:29:54;100587.72;;;21.28;100.00
35647;BME280;28680;45.642;13.756;2023-06-14T04:32:26;100584.69;;;21.31;100.00
35647;BME280;28680;45.642;13.756;2023-06-14T04:34:56;100591.03;;;21.30;100.00
35647;BME280;28680;45.642;13.756;2023-06-14T04:37:23;100596.34;;;21.30;100.00
35647;BME280;28680;45.642;13.756;2023-06-14T04:39:49;100595.56;;;21.36;100.00
35647;BME280;28680;45.642;13.756;2023-06-14T04:42:16;100600.28;;;21.34;100.00
35647;BME280;28680;45.642;13.756;2023-06-14T04:44:42;100602.91;;;21.27;100.00
35647;BME280;28680;45.642;13.756;2023-06-14T04:47:10;100610.53;;;21.30;100.00
35647;BME280;28680;45.642;13.756;2023-06-14T04:49:38;100604.78;;;21.27;100.00
35647;BME280;28680;45.642;13.756;2023-06-14T04:52:06;100617.03;;;21.21;100.00
35647;BME280;28680;45.642;13.756;2023-06-14T04:54:33;100618.50;;;21.23;100.00
35647;BME280;28680;45.642;13.756;2023-06-14T04:56:59;100615.97;;;21.15;100.00
35647;BME280;28680;45.642;13.756;2023-06-14T04:59:25;100608.00;;;21.22;100.00
35647;BME280;28680;45.642;13.756;2023-06-14T05:01:51;100608.78;;;21.16;100.00
35647;BME280;28680;45.642;13.756;2023-06-14T05:04:19;100610.28;;;21.25;100.00
35647;BME280;28680;45.642;13.756;2023-06-14T05:06:47;100609.31;;;21.33;100.00
35647;BME280;28680;45.642;13.756;2023-06-14T05:09:15;100616.31;;;21.34;100.00
35647;BME280;28680;45.642;13.756;2023-06-14T05:11:42;100619.19;;;21.32;100.00
35647;BME280;28680;45.642;13.756;2023-06-14T05:14:13;100621.63;;;21.34;100.00
35647;BME280;28680;45.642;13.756;2023-06-14T05:16:40;100627.94;;;21.48;100.00
35647;BME280;28680;45.642;13.756;2023-06-14T05:19:06;100628.38;;;21.51;100.00
35647;BME280;28680;45.642;13.756;2023-06-14T05:21:33;100623.28;;;21.56;100.00
35647;BME280;28680;45.642;13.756;2023-06-14T05:24:03;100635.03;;;21.62;100.00
35647;BME280;28680;45.642;13.756;2023-06-14T05:26:28;100636.94;;;21.68;100.00
35647;BME280;28680;45.642;13.756;2023-06-14T05:28:57;100630.38;;;21.77;100.00
35647;BME280;28680;45.642;13.756;2023-06-14T05:31:26;100637.81;;;21.82;100.00
35647;BME280;28680;45.642;13.756;2023-06-14T05:33:53;100643.97;;;21.83;100.00
35647;BME280;28680;45.642;13.756;2023-06-14T05:36:20;100637.84;;;21.89;100.00
35647;BME280;28680;45.642;13.756;2023-06-14T05:38:49;100638.72;;;21.96;100.00
35647;BME280;28680;45.642;13.756;2023-06-14T05:41:16;100644.50;;;21.99;100.00
35647;BME280;28680;45.642;13.756;2023-06-14T05:43:42;100646.59;;;22.04;100.00
35647;BME280;28680;45.642;13.756;2023-06-14T05:46:08;100643.31;;;22.09;100.00
35647;BME280;28680;45.642;13.756;2023-06-14T05:48:34;100650.72;;;22.13;100.00
35647;BME280;28680;45.642;13.756;2023-06-14T05:51:00;100646.66;;;22.24;100.00
35647;BME280;28680;45.642;13.756;2023-06-14T05:53:26;100649.19;;;22.32;100.00
35647;BME280;28680;45.642;13.756;2023-06-14T05:55:52;100642.91;;;22.53;100.00
35647;BME280;28680;45.642;13.756;2023-06-14T05:58:21;100656.09;;;22.68;100.00
35647;BME280;28680;45.642;13.756;2023-06-14T06:00:47;100658.41;;;22.78;100.00
35647;BME280;28680;45.642;13.756;2023-06-14T06:03:13;100661.09;;;22.91;100.00
35647;BME280;28680;45.642;13.756;2023-06-14T06:05:39;100668.72;;;22.94;100.00
35647;BME280;28680;45.642;13.756;2023-06-14T06:08:06;100667.50;;;22.97;100.00
35647;BME280;28680;45.642;13.756;2023-06-14T06:10:32;100673.94;;;23.16;100.00
35647;BME280;28680;45.642;13.756;2023-06-14T06:12:57;100675.16;;;23.27;100.00
35647;BME280;28680;45.642;13.756;2023-06-14T06:15:23;100681.97;;;23.29;100.00
35647;BME280;28680;45.642;13.756;2023-06-14T06:17:50;100683.41;;;23.39;100.00
35647;BME280;28680;45.642;13.756;2023-06-14T06:20:16;100684.63;;;23.49;100.00
35647;BME280;28680;45.642;13.756;2023-06-14T06:22:43;100681.13;;;23.62;100.00
35647;BME280;28680;45.642;13.756;2023-06-14T06:25:10;100674.53;;;23.65;100.00
35647;BME280;28680;45.642;13.756;2023-06-14T06:27:35;100679.25;;;23.63;100.00
35647;BME280;28680;45.642;13.756;2023-06-14T06:30:04;100671.22;;;23.63;100.00
35647;BME280;28680;45.642;13.756;2023-06-14T06:32:31;100669.38;;;23.70;100.00
35647;BME280;28680;45.642;13.756;2023-06-14T06:34:57;100673.50;;;23.72;100.00
35647;BME280;28680;45.642;13.756;2023-06-14T06:37:23;100673.50;;;23.72;100.00
35647;BME280;28680;45.642;13.756;2023-06-14T06:39:48;100683.78;;;23.75;100.00
35647;BME280;28680;45.642;13.756;2023-06-14T06:42:14;100683.38;;;23.85;100.00
35647;BME280;28680;45.642;13.756;2023-06-14T06:44:40;100687.50;;;23.94;100.00
35647;BME280;28680;45.642;13.756;2023-06-14T06:47:06;100689.78;;;23.84;100.00
35647;BME280;28680;45.642;13.756;2023-06-14T06:49:32;100686.69;;;23.81;100.00
35647;BME280;28680;45.642;13.756;2023-06-14T06:52:06;100692.25;;;23.92;100.00
35647;BME280;28680;45.642;13.756;2023-06-14T06:54:33;100696.56;;;24.07;100.00
35647;BME280;28680;45.642;13.756;2023-06-14T06:57:00;100686.81;;;24.19;100.00
35647;BME280;28680;45.642;13.756;2023-06-14T06:59:27;100700.00;;;24.27;100.00
35647;BME280;28680;45.642;13.756;2023-06-14T07:01:53;100693.38;;;24.30;100.00
35647;BME280;28680;45.642;13.756;2023-06-14T07:04:19;100697.06;;;24.36;100.00
35647;BME280;28680;45.642;13.756;2023-06-14T07:06:46;100691.72;;;24.36;100.00
35647;BME280;28680;45.642;13.756;2023-06-14T07:09:13;100699.72;;;24.42;100.00
35647;BME280;28680;45.642;13.756;2023-06-14T07:11:43;100690.63;;;24.50;100.00
35647;BME280;28680;45.642;13.756;2023-06-14T07:14:09;100687.94;;;24.57;100.00
35647;BME280;28680;45.642;13.756;2023-06-14T07:16:36;100689.75;;;24.63;100.00
35647;BME280;28680;45.642;13.756;2023-06-14T07:19:03;100683.69;;;24.74;100.00
35647;BME280;28680;45.642;13.756;2023-06-14T07:21:30;100685.56;;;24.74;100.00
35647;BME280;28680;45.642;13.756;2023-06-14T07:23:56;100685.75;;;24.79;100.00
35647;BME280;28680;45.642;13.756;2023-06-14T07:26:25;100677.72;;;24.79;100.00
35647;BME280;28680;45.642;13.756;2023-06-14T07:28:52;100685.09;;;24.83;100.00
35647;BME280;28680;45.642;13.756;2023-06-14T07:31:18;100686.16;;;24.82;100.00
35647;BME280;28680;45.642;13.756;2023-06-14T07:33:45;100686.09;;;24.89;100.00
35647;BME280;28680;45.642;13.756;2023-06-14T07:36:11;100689.75;;;25.01;100.00
35647;BME280;28680;45.642;13.756;2023-06-14T07:38:37;100687.19;;;25.13;100.00
35647;BME280;28680;45.642;13.756;2023-06-14T07:41:03;100692.69;;;25.25;100.00
35647;BME280;28680;45.642;13.756;2023-06-14T07:43:29;100696.75;;;25.34;99.59
35647;BME280;28680;45.642;13.756;2023-06-14T07:45:55;100698.91;;;25.19;97.09
35647;BME280;28680;45.642;13.756;2023-06-14T07:48:22;100692.94;;;25.17;89.52
35647;BME280;28680;45.642;13.756;2023-06-14T07:50:48;100692.09;;;25.23;91.79
35647;BME280;28680;45.642;13.756;2023-06-14T07:53:14;100695.81;;;25.22;91.73
35647;BME280;28680;45.642;13.756;2023-06-14T07:55:40;100696.31;;;25.05;87.08
35647;BME280;28680;45.642;13.756;2023-06-14T07:58:08;100689.69;;;25.08;85.93
35647;BME280;28680;45.642;13.756;2023-06-14T08:00:33;100684.69;;;25.18;87.83
35647;BME280;28680;45.642;13.756;2023-06-14T08:02:59;100686.31;;;25.19;84.54
35647;BME280;28680;45.642;13.756;2023-06-14T08:05:26;100688.56;;;25.22;84.76
35647;BME280;28680;45.642;13.756;2023-06-14T08:07:52;100687.44;;;25.37;82.08
35647;BME280;28680;45.642;13.756;2023-06-14T08:10:19;100688.16;;;25.51;81.31
35647;BME280;28680;45.642;13.756;2023-06-14T08:12:45;100683.47;;;25.64;82.63
35647;BME280;28680;45.642;13.756;2023-06-14T08:15:11;100684.16;;;25.78;79.79
35647;BME280;28680;45.642;13.756;2023-06-14T08:17:37;100689.88;;;25.88;89.19
35647;BME280;28680;45.642;13.756;2023-06-14T08:20:03;100680.59;;;25.84;94.47
35647;BME280;28680;45.642;13.756;2023-06-14T08:22:31;100684.09;;;25.85;92.94
35647;BME280;28680;45.642;13.756;2023-06-14T08:25:00;100689.09;;;25.81;90.94
35647;BME280;28680;45.642;13.756;2023-06-14T08:27:27;100682.53;;;25.77;90.50
35647;BME280;28680;45.642;13.756;2023-06-14T08:29:53;100679.41;;;25.80;94.63
35647;BME280;28680;45.642;13.756;2023-06-14T08:32:19;100685.09;;;25.91;97.95
35647;BME280;28680;45.642;13.756;2023-06-14T08:34:45;100681.09;;;26.00;100.00
35647;BME280;28680;45.642;13.756;2023-06-14T08:37:11;100679.28;;;26.12;100.00
35647;BME280;28680;45.642;13.756;2023-06-14T08:39:37;100677.13;;;26.21;100.00
35647;BME280;28680;45.642;13.756;2023-06-14T08:42:03;100676.00;;;26.29;100.00
35647;BME280;28680;45.642;13.756;2023-06-14T08:44:32;100685.78;;;26.23;100.00
35647;BME280;28680;45.642;13.756;2023-06-14T08:46:59;100689.66;;;26.27;100.00
35647;BME280;28680;45.642;13.756;2023-06-14T08:49:26;100684.72;;;26.42;100.00
35647;BME280;28680;45.642;13.756;2023-06-14T08:52:00;100693.00;;;26.59;100.00
35647;BME280;28680;45.642;13.756;2023-06-14T08:54:28;100696.81;;;26.70;100.00
35647;BME280;28680;45.642;13.756;2023-06-14T08:56:58;100693.94;;;26.83;100.00
35647;BME280;28680;45.642;13.756;2023-06-14T08:59:27;100699.47;;;26.89;97.61
35647;BME280;28680;45.642;13.756;2023-06-14T09:01:54;100707.34;;;27.02;97.71
35647;BME280;28680;45.642;13.756;2023-06-14T09:04:23;100703.50;;;27.10;100.00
35647;BME280;28680;45.642;13.756;2023-06-14T09:06:56;100710.28;;;27.12;100.00
35647;BME280;28680;45.642;13.756;2023-06-14T09:09:22;100706.78;;;27.12;100.00
35647;BME280;28680;45.642;13.756;2023-06-14T09:11:53;100715.59;;;27.19;100.00
35647;BME280;28680;45.642;13.756;2023-06-14T09:14:21;100714.16;;;27.16;100.00
35647;BME280;28680;45.642;13.756;2023-06-14T09:16:47;100710.06;;;27.14;100.00
35647;BME280;28680;45.642;13.756;2023-06-14T09:19:23;100711.00;;;27.19;98.08
35647;BME280;28680;45.642;13.756;2023-06-14T09:21:50;100714.06;;;27.23;99.75
35647;BME280;28680;45.642;13.756;2023-06-14T09:24:19;100718.88;;;27.21;100.00
35647;BME280;28680;45.642;13.756;2023-06-14T09:26:48;100715.28;;;27.27;100.00
35647;BME280;28680;45.642;13.756;2023-06-14T09:29:15;100717.38;;;27.37;100.00
35647;BME280;28680;45.642;13.756;2023-06-14T09:31:42;100715.19;;;27.34;100.00
35647;BME280;28680;45.642;13.756;2023-06-14T09:34:09;100718.81;;;27.51;100.00
35647;BME280;28680;45.642;13.756;2023-06-14T09:36:35;100716.97;;;27.75;100.00
35647;BME280;28680;45.642;13.756;2023-06-14T09:39:03;100712.75;;;27.79;100.00
35647;BME280;28680;45.642;13.756;2023-06-14T09:41:38;100714.97;;;27.71;100.00
35647;BME280;28680;45.642;13.756;2023-06-14T09:44:07;100713.84;;;27.90;99.02
35647;BME280;28680;45.642;13.756;2023-06-14T09:46:35;100710.75;;;27.87;100.00
35647;BME280;28680;45.642;13.756;2023-06-14T09:49:06;100720.97;;;27.85;100.00
35647;BME280;28680;45.642;13.756;2023-06-14T09:51:32;100717.66;;;28.06;96.66
35647;BME280;28680;45.642;13.756;2023-06-14T09:54:02;100709.16;;;28.38;94.22
35647;BME280;28680;45.642;13.756;2023-06-14T09:56:35;100710.94;;;28.32;98.45
35647;BME280;28680;45.642;13.756;2023-06-14T09:59:05;100712.31;;;28.35;100.00
35647;BME280;28680;45.642;13.756;2023-06-14T10:01:42;100697.28;;;28.51;100.00
35647;BME280;28680;45.642;13.756;2023-06-14T10:04:09;100701.63;;;28.40;100.00
35647;BME280;28680;45.642;13.756;2023-06-14T10:06:43;100706.28;;;28.16;100.00
35647;BME280;28680;45.642;13.756;2023-06-14T10:09:11;100705.84;;;28.07;100.00
35647;BME280;28680;45.642;13.756;2023-06-14T10:11:37;100702.28;;;28.07;100.00
35647;BME280;28680;45.642;13.756;2023-06-14T10:14:12;100702.22;;;28.02;100.00
35647;BME280;28680;45.642;13.756;2023-06-14T10:17:11;100695.75;;;28.03;100.00
35647;BME280;28680;45.642;13.756;2023-06-14T10:19:42;100703.03;;;28.02;100.00
35647;BME280;28680;45.642;13.756;2023-06-14T10:22:34;100701.09;;;28.14;100.00
35647;BME280;28680;45.642;13.756;2023-06-14T10:25:02;100703.81;;;28.14;100.00
35647;BME280;28680;45.642;13.756;2023-06-14T10:27:33;100692.50;;;28.29;98.06
35647;BME280;28680;45.642;13.756;2023-06-14T10:30:01;100693.19;;;27.96;97.97
35647;BME280;28680;45.642;13.756;2023-06-14T10:32:28;100693.97;;;28.08;98.61
35647;BME280;28680;45.642;13.756;2023-06-14T10:34:58;100701.47;;;28.06;96.39
35647;BME280;28680;45.642;13.756;2023-06-14T10:37:24;100699.00;;;28.05;93.54
35647;BME280;28680;45.642;13.756;2023-06-14T10:39:51;100697.16;;;27.93;97.19
35647;BME280;28680;45.642;13.756;2023-06-14T10:42:17;100697.81;;;28.12;90.45
35647;BME280;28680;45.642;13.756;2023-06-14T10:44:50;100695.44;;;28.28;90.86
35647;BME280;28680;45.642;13.756;2023-06-14T10:47:35;100697.88;;;28.53;86.73
35647;BME280;28680;45.642;13.756;2023-06-14T10:50:08;100688.69;;;28.54;88.52
35647;BME280;28680;45.642;13.756;2023-06-14T10:52:40;100691.44;;;28.71;85.65
35647;BME280;28680;45.642;13.756;2023-06-14T10:55:17;100685.72;;;29.13;82.46
35647;BME280;28680;45.642;13.756;2023-06-14T10:57:48;100690.56;;;29.45;80.88
35647;BME280;28680;45.642;13.756;2023-06-14T11:00:22;100691.47;;;29.16;89.35
35647;BME280;28680;45.642;13.756;2023-06-14T11:03:43;100686.81;;;28.83;94.16
35647;BME280;28680;45.642;13.756;2023-06-14T11:06:14;100684.38;;;28.82;94.78
35647;BME280;28680;45.642;13.756;2023-06-14T11:11:56;100688.34;;;28.62;96.02
35647;BME280;28680;45.642;13.756;2023-06-14T11:14:22;100681.41;;;28.54;100.00
35647;BME280;28680;45.642;13.756;2023-06-14T11:16:50;100692.16;;;28.37;100.00
35647;BME280;28680;45.642;13.756;2023-06-14T11:19:16;100684.97;;;28.43;100.00
35647;BME280;28680;45.642;13.756;2023-06-14T11:21:49;100684.72;;;28.45;100.00
35647;BME280;28680;45.642;13.756;2023-06-14T11:24:17;100676.69;;;28.62;100.00
35647;BME280;28680;45.642;13.756;2023-06-14T11:26:43;100679.06;;;28.58;100.00
35647;BME280;28680;45.642;13.756;2023-06-14T11:29:09;100680.81;;;28.64;99.02
35647;BME280;28680;45.642;13.756;2023-06-14T11:31:35;100675.22;;;28.54;100.00
35647;BME280;28680;45.642;13.756;2023-06-14T11:34:01;100680.47;;;28.61;100.00
35647;BME280;28680;45.642;13.756;2023-06-14T11:36:31;100675.69;;;28.80;100.00
35647;BME280;28680;45.642;13.756;2023-06-14T11:39:06;100678.81;;;29.05;100.00
35647;BME280;28680;45.642;13.756;2023-06-14T11:41:38;100671.50;;;29.18;100.00
35647;BME280;28680;45.642;13.756;2023-06-14T11:44:07;100666.75;;;29.25;100.00
35647;BME280;28680;45.642;13.756;2023-06-14T11:46:34;100661.19;;;29.87;94.77
35647;BME280;28680;45.642;13.756;2023-06-14T11:49:01;100660.94;;;29.89;91.29
35647;BME280;28680;45.642;13.756;2023-06-14T11:51:33;100659.66;;;29.74;94.39
35647;BME280;28680;45.642;13.756;2023-06-14T11:54:00;100658.09;;;29.62;93.26
35647;BME280;28680;45.642;13.756;2023-06-14T11:56:27;100660.91;;;29.50;94.01
35647;BME280;28680;45.642;13.756;2023-06-14T11:58:53;100650.75;;;29.40;93.30
35647;BME280;28680;45.642;13.756;2023-06-14T12:01:22;100649.06;;;29.34;91.39
35647;BME280;28680;45.642;13.756;2023-06-14T12:03:54;100645.03;;;29.37;89.27
35647;BME280;28680;45.642;13.756;2023-06-14T12:06:28;100647.06;;;29.46;87.90
35647;BME280;28680;45.642;13.756;2023-06-14T12:08:56;100644.94;;;29.48;83.16
35647;BME280;28680;45.642;13.756;2023-06-14T12:11:22;100641.75;;;29.51;82.63
35647;BME280;28680;45.642;13.756;2023-06-14T12:13:49;100637.63;;;29.49;84.77
35647;BME280;28680;45.642;13.756;2023-06-14T12:16:15;100635.13;;;29.42;84.73
35647;BME280;28680;45.642;13.756;2023-06-14T12:18:41;100638.50;;;29.32;85.31
35647;BME280;28680;45.642;13.756;2023-06-14T12:21:10;100638.94;;;29.46;78.66
35647;BME280;28680;45.642;13.756;2023-06-14T12:23:48;100624.19;;;29.54;80.22
35647;BME280;28680;45.642;13.756;2023-06-14T12:26:19;100616.97;;;29.60;78.40
35647;BME280;28680;45.642;13.756;2023-06-14T12:28:47;100624.28;;;29.59;79.62
35647;BME280;28680;45.642;13.756;2023-06-14T12:31:15;100625.75;;;29.50;80.33
35647;BME280;28680;45.642;13.756;2023-06-14T12:33:42;100618.69;;;29.49;79.61
35647;BME280;28680;45.642;13.756;2023-06-14T12:36:09;100619.59;;;29.54;80.36
35647;BME280;28680;45.642;13.756;2023-06-14T12:38:37;100613.13;;;29.55;81.18
35647;BME280;28680;45.642;13.756;2023-06-14T12:41:03;100616.72;;;29.61;78.76